createdAt,value
2022-12-08T00:02:03.223Z,-0.29
2022-12-08T00:04:51.288Z,-0.36
2022-12-08T00:07:36.469Z,-0.44
2022-12-08T00:10:18.879Z,-0.48
2022-12-08T00:12:52.190Z,-0.53
2022-12-08T00:15:22.210Z,-0.54
2022-12-08T00:17:49.717Z,-0.63
2022-12-08T00:20:17.452Z,-0.62
2022-12-08T00:22:45.008Z,-0.64
2022-12-08T00:25:12.597Z,-0.67
2022-12-08T00:27:42.269Z,-0.71
2022-12-08T00:30:10.756Z,-0.73
2022-12-08T00:32:40.900Z,-0.75
2022-12-08T00:35:08.802Z,-0.70
2022-12-08T00:37:38.897Z,-0.66
2022-12-08T00:40:07.392Z,-0.69
2022-12-08T00:42:36.620Z,-0.63
2022-12-08T00:45:04.184Z,-0.57
2022-12-08T00:47:31.729Z,-0.54
2022-12-08T00:49:59.273Z,-0.53
2022-12-08T00:52:29.082Z,-0.48
2022-12-08T00:54:56.671Z,-0.51
2022-12-08T00:57:24.171Z,-0.52
2022-12-08T00:59:54.184Z,-0.51
2022-12-08T01:02:21.690Z,-0.57
2022-12-08T01:04:49.190Z,-0.62
2022-12-08T01:07:16.725Z,-0.71
2022-12-08T01:09:46.551Z,-0.77
2022-12-08T01:12:14.109Z,-0.81
2022-12-08T01:14:41.623Z,-0.88
2022-12-08T01:17:12.000Z,-0.96
2022-12-08T01:19:39.612Z,-1.04
2022-12-08T01:22:09.873Z,-1.16
2022-12-08T01:24:37.403Z,-1.18
2022-12-08T01:27:05.023Z,-1.22
2022-12-08T01:29:35.524Z,-1.30
2022-12-08T01:32:03.400Z,-1.33
2022-12-08T01:34:30.912Z,-1.37
2022-12-08T01:36:58.492Z,-1.43
2022-12-08T01:39:26.232Z,-1.46
2022-12-08T01:41:53.823Z,-1.51
2022-12-08T01:44:21.301Z,-1.58
2022-12-08T01:46:49.224Z,-1.64
2022-12-08T01:49:22.190Z,-1.68
2022-12-08T01:52:00.168Z,-1.72
2022-12-08T01:54:30.659Z,-1.75
2022-12-08T01:57:11.317Z,-1.81
2022-12-08T01:59:44.132Z,-1.87
2022-12-08T02:02:13.264Z,-1.93
2022-12-08T02:04:40.836Z,-1.97
2022-12-08T02:07:11.786Z,-2.04
2022-12-08T02:09:43.993Z,-2.08
2022-12-08T02:12:14.368Z,-2.09
2022-12-08T02:14:41.968Z,-2.11
2022-12-08T02:17:26.348Z,-2.12
2022-12-08T02:20:13.200Z,-2.13
2022-12-08T02:22:52.356Z,-2.09
2022-12-08T02:25:37.718Z,-2.03
2022-12-08T02:28:23.445Z,-2.03
2022-12-08T02:31:36.388Z,-2.00
2022-12-08T02:34:03.872Z,-1.92
2022-12-08T02:36:56.264Z,-1.89
2022-12-08T02:39:48.066Z,-1.84
2022-12-08T02:43:05.024Z,-1.76
2022-12-08T02:45:54.349Z,-1.67
2022-12-08T02:48:22.246Z,-1.54
2022-12-08T02:50:49.764Z,-1.45
2022-12-08T02:53:17.247Z,-1.37
2022-12-08T02:56:02.565Z,-1.33
2022-12-08T02:58:51.865Z,-1.26
2022-12-08T03:01:31.559Z,-1.18
2022-12-08T03:04:17.827Z,-1.15
2022-12-08T03:07:06.426Z,-1.08
2022-12-08T03:09:44.228Z,-1.04
2022-12-08T03:12:21.968Z,-0.98
2022-12-08T03:14:54.329Z,-0.92
2022-12-08T03:17:27.037Z,-0.88
2022-12-08T03:19:57.779Z,-0.88
2022-12-08T03:22:28.646Z,-0.85
2022-12-08T03:24:57.585Z,-0.82
2022-12-08T03:27:28.837Z,-0.79
2022-12-08T03:30:02.125Z,-0.75
2022-12-08T03:32:47.757Z,-0.71
2022-12-08T03:35:23.892Z,-0.67
2022-12-08T03:37:51.451Z,-0.66
2022-12-08T03:40:21.507Z,-0.61
2022-12-08T03:42:49.092Z,-0.55
2022-12-08T03:45:20.937Z,-0.53
2022-12-08T03:47:49.108Z,-0.55
2022-12-08T03:50:21.946Z,-0.50
2022-12-08T03:52:49.566Z,-0.51
2022-12-08T03:55:17.802Z,-0.47
2022-12-08T03:57:45.740Z,-0.40
2022-12-08T04:00:17.237Z,-0.45
2022-12-08T04:02:44.852Z,-0.43
2022-12-08T04:05:12.426Z,-0.40
2022-12-08T04:07:39.973Z,-0.35
2022-12-08T04:10:08.173Z,-0.34
2022-12-08T04:12:35.747Z,-0.33
2022-12-08T04:15:03.256Z,-0.29
2022-12-08T04:17:30.975Z,-0.29
2022-12-08T04:19:58.487Z,-0.26
2022-12-08T04:22:26.082Z,-0.22
2022-12-08T04:24:53.704Z,-0.19
2022-12-08T04:27:21.752Z,-0.17
2022-12-08T04:29:49.259Z,-0.19
2022-12-08T04:32:16.752Z,-0.14
2022-12-08T04:34:44.278Z,-0.11
2022-12-08T04:37:11.842Z,-0.09
2022-12-08T04:39:39.447Z,-0.08
2022-12-08T04:42:07.028Z,-0.06
2022-12-08T04:44:34.577Z,-0.05
2022-12-08T04:47:02.199Z,-0.03
2022-12-08T04:49:32.143Z,-0.03
2022-12-08T04:51:59.761Z,-0.05
2022-12-08T04:54:30.086Z,-0.04
2022-12-08T04:56:57.598Z,-0.02
2022-12-08T04:59:25.105Z,-0.04
2022-12-08T05:01:53.868Z,-0.06
2022-12-08T05:04:21.561Z,-0.04
2022-12-08T05:06:49.411Z,-0.03
2022-12-08T05:09:16.953Z,0.02
2022-12-08T05:11:48.851Z,0.03
2022-12-08T05:14:19.162Z,0.05
2022-12-08T05:16:50.057Z,0.05
2022-12-08T05:19:17.777Z,0.03
2022-12-08T05:21:47.851Z,0.03
2022-12-08T05:24:15.457Z,0.03
2022-12-08T05:26:42.982Z,0.02
2022-12-08T05:29:10.553Z,0.02
2022-12-08T05:31:38.146Z,0.02
2022-12-08T05:34:05.716Z,0.00
2022-12-08T05:36:35.619Z,0.02
2022-12-08T05:39:03.225Z,0.01
2022-12-08T05:41:31.096Z,0.01
2022-12-08T05:43:58.656Z,0.04
2022-12-08T05:46:26.323Z,0.05
2022-12-08T05:48:53.882Z,0.04
2022-12-08T05:51:23.930Z,0.03
2022-12-08T05:53:53.021Z,0.07
2022-12-08T05:56:21.847Z,0.09
2022-12-08T05:58:49.839Z,0.10
2022-12-08T06:01:26.185Z,0.12
2022-12-08T06:03:54.276Z,0.09
2022-12-08T06:06:22.287Z,0.15
2022-12-08T06:08:50.301Z,0.15
2022-12-08T06:11:28.507Z,0.20
2022-12-08T06:13:56.998Z,0.21
2022-12-08T06:16:26.144Z,0.22
2022-12-08T06:18:54.280Z,0.25
2022-12-08T06:21:27.647Z,0.24
2022-12-08T06:23:57.837Z,0.24
2022-12-08T06:26:25.572Z,0.08
2022-12-08T06:28:53.626Z,0.23
2022-12-08T06:31:23.636Z,0.28
2022-12-08T06:33:54.457Z,0.28
2022-12-08T06:36:26.648Z,0.26
2022-12-08T06:38:54.176Z,0.32
2022-12-08T06:41:21.736Z,0.36
2022-12-08T06:43:49.301Z,0.34
2022-12-08T06:46:20.247Z,0.38
2022-12-08T06:48:48.210Z,0.45
2022-12-08T06:51:18.093Z,0.52
2022-12-08T06:53:47.019Z,0.55
2022-12-08T06:56:15.845Z,0.57
2022-12-08T06:58:49.030Z,0.61
2022-12-08T07:01:20.127Z,0.65
2022-12-08T07:03:47.967Z,0.70
2022-12-08T07:06:22.649Z,0.74
2022-12-08T07:08:50.264Z,0.79
2022-12-08T07:11:21.974Z,0.82
2022-12-08T07:13:50.859Z,0.85
2022-12-08T07:16:18.539Z,0.93
2022-12-08T07:18:48.650Z,0.95
2022-12-08T07:21:16.756Z,1.04
2022-12-08T07:23:50.252Z,1.05
2022-12-08T07:26:21.770Z,1.14
2022-12-08T07:28:49.441Z,1.19
2022-12-08T07:31:20.403Z,1.22
2022-12-08T07:33:48.531Z,1.21
2022-12-08T07:36:18.687Z,1.23
2022-12-08T07:38:49.701Z,1.31
2022-12-08T07:41:20.067Z,1.39
2022-12-08T07:43:50.254Z,1.50
2022-12-08T07:46:22.070Z,1.63
2022-12-08T07:48:52.550Z,1.75
2022-12-08T07:51:20.266Z,1.88
2022-12-08T07:53:53.687Z,1.98
2022-12-08T07:56:24.516Z,1.98
2022-12-08T07:58:52.392Z,2.27
2022-12-08T08:01:21.471Z,2.45
2022-12-08T08:03:49.720Z,2.65
2022-12-08T08:06:17.622Z,2.86
2022-12-08T08:08:45.332Z,3.22
2022-12-08T08:11:18.919Z,3.55
2022-12-08T08:13:48.324Z,3.85
2022-12-08T08:16:16.087Z,4.12
2022-12-08T08:18:43.740Z,4.19
2022-12-08T08:21:43.958Z,4.19
2022-12-08T08:24:04.042Z,4.13
2022-12-08T08:26:31.623Z,4.10
2022-12-08T08:28:59.215Z,4.00
2022-12-08T08:31:27.864Z,4.07
2022-12-08T08:33:56.858Z,4.09
2022-12-08T08:36:24.464Z,4.14
2022-12-08T08:38:52.615Z,4.18
2022-12-08T08:41:20.157Z,4.19
2022-12-08T08:43:47.753Z,4.27
2022-12-08T08:46:15.395Z,4.42
2022-12-08T08:48:42.960Z,4.34
2022-12-08T08:51:12.318Z,4.46
2022-12-08T08:53:40.146Z,4.56
2022-12-08T08:56:12.260Z,4.63
2022-12-08T08:58:40.507Z,4.63
2022-12-08T09:01:15.465Z,4.54
2022-12-08T09:03:43.137Z,4.49
2022-12-08T09:06:10.788Z,4.43
2022-12-08T09:08:38.390Z,4.45
2022-12-08T09:11:06.115Z,4.35
2022-12-08T09:13:33.821Z,4.36
2022-12-08T09:16:03.658Z,4.26
2022-12-08T09:18:31.632Z,4.25
2022-12-08T09:21:06.189Z,4.24
2022-12-08T09:23:35.822Z,4.29
2022-12-08T09:26:05.081Z,4.33
2022-12-08T09:28:33.926Z,4.32
2022-12-08T09:31:02.248Z,4.32
2022-12-08T09:33:29.991Z,4.30
2022-12-08T09:35:57.785Z,4.16
2022-12-08T09:38:25.317Z,4.15
2022-12-08T09:40:54.745Z,4.07
2022-12-08T09:43:44.048Z,4.03
2022-12-08T09:46:17.522Z,4.00
2022-12-08T09:48:55.753Z,4.07
2022-12-08T09:51:29.545Z,4.01
2022-12-08T09:54:07.714Z,4.14
2022-12-08T09:56:38.184Z,4.19
2022-12-08T09:59:30.310Z,4.21
2022-12-08T10:02:03.737Z,4.21
2022-12-08T10:04:34.940Z,4.19
2022-12-08T10:07:32.023Z,4.27
2022-12-08T10:10:18.181Z,4.28
2022-12-08T10:13:30.539Z,4.25
2022-12-08T10:16:21.149Z,4.21
2022-12-08T10:18:59.113Z,4.20
2022-12-08T10:21:29.922Z,4.17
2022-12-08T10:24:05.716Z,4.23
2022-12-08T10:26:35.737Z,4.20
2022-12-08T10:29:03.567Z,4.30
2022-12-08T10:31:32.444Z,4.38
2022-12-08T10:34:02.379Z,4.41
2022-12-08T10:36:47.685Z,4.48
2022-12-08T10:39:45.593Z,4.44
2022-12-08T10:42:15.958Z,4.52
2022-12-08T10:44:58.481Z,4.51
2022-12-08T10:47:28.641Z,4.50
2022-12-08T10:50:18.863Z,4.43
2022-12-08T10:52:55.009Z,4.39
2022-12-08T10:55:23.042Z,4.31
2022-12-08T10:57:52.755Z,4.27
2022-12-08T11:00:27.122Z,4.30
2022-12-08T11:03:00.776Z,4.23
2022-12-08T11:05:37.203Z,4.18
2022-12-08T11:08:06.690Z,4.13
2022-12-08T11:10:43.382Z,4.24
2022-12-08T11:13:20.767Z,4.20
2022-12-08T11:15:48.695Z,4.19
2022-12-08T11:18:42.060Z,4.16
2022-12-08T11:21:15.312Z,4.11
2022-12-08T11:23:47.557Z,4.08
2022-12-08T11:26:33.157Z,4.06
2022-12-08T11:29:00.713Z,4.13
2022-12-08T11:31:35.056Z,4.14
2022-12-08T11:34:04.248Z,4.19
2022-12-08T11:36:36.573Z,4.10
2022-12-08T11:39:06.474Z,4.05
2022-12-08T11:41:43.855Z,4.03
2022-12-08T11:44:30.127Z,4.09
2022-12-08T11:47:04.544Z,4.13
2022-12-08T11:49:41.172Z,4.20
2022-12-08T11:52:32.532Z,4.24
2022-12-08T11:55:18.828Z,4.31
2022-12-08T11:57:46.971Z,4.33
2022-12-08T12:00:17.507Z,4.38
2022-12-08T12:02:51.647Z,4.47
2022-12-08T12:06:03.358Z,4.53
2022-12-08T12:08:55.961Z,4.56
2022-12-08T12:12:04.339Z,4.49
2022-12-08T12:14:31.885Z,4.51
2022-12-08T12:17:09.296Z,4.43
2022-12-08T12:19:40.589Z,4.36
2022-12-08T12:22:21.430Z,4.37
2022-12-08T12:24:53.003Z,4.29
2022-12-08T12:27:36.096Z,4.22
2022-12-08T12:30:09.024Z,4.12
2022-12-08T12:32:52.766Z,4.16
2022-12-08T12:35:27.122Z,4.14
2022-12-08T12:37:59.656Z,4.13
2022-12-08T12:40:30.108Z,4.16
2022-12-08T12:42:57.666Z,4.09
2022-12-08T12:45:27.096Z,4.07
2022-12-08T12:47:57.795Z,4.01
2022-12-08T12:50:34.352Z,3.97
2022-12-08T12:53:24.303Z,3.96
2022-12-08T12:55:57.970Z,3.95
2022-12-08T12:58:31.522Z,3.96
2022-12-08T13:01:11.307Z,3.91
2022-12-08T13:03:42.838Z,3.89
2022-12-08T13:06:14.904Z,3.83
2022-12-08T13:08:52.217Z,3.83
2022-12-08T13:11:19.957Z,3.87
2022-12-08T13:14:04.328Z,3.87
2022-12-08T13:16:42.473Z,3.85
2022-12-08T13:19:15.961Z,3.82
2022-12-08T13:21:44.838Z,3.77
2022-12-08T13:24:12.734Z,3.81
2022-12-08T13:26:51.029Z,3.81
2022-12-08T13:29:26.444Z,3.80
2022-12-08T13:32:01.293Z,3.81
2022-12-08T13:34:52.836Z,3.82
2022-12-08T13:37:33.878Z,3.82
2022-12-08T13:40:16.470Z,3.84
2022-12-08T13:42:49.580Z,3.87
2022-12-08T13:45:52.945Z,3.88
2022-12-08T13:49:09.591Z,3.87
2022-12-08T13:55:13.569Z,3.77
2022-12-08T13:57:28.988Z,3.77
2022-12-08T14:00:01.837Z,3.70
2022-12-08T14:02:50.303Z,3.66
2022-12-08T14:05:35.252Z,3.66
2022-12-08T14:08:51.054Z,3.64
2022-12-08T14:11:15.019Z,3.63
2022-12-08T14:13:43.210Z,3.65
2022-12-08T14:16:29.624Z,3.61
2022-12-08T14:19:05.555Z,3.56
2022-12-08T14:21:36.195Z,3.53
2022-12-08T14:24:04.224Z,3.53
2022-12-08T14:26:35.453Z,3.47
2022-12-08T14:29:03.152Z,3.46
2022-12-08T14:31:30.816Z,3.43
2022-12-08T14:33:58.755Z,3.41
2022-12-08T14:36:26.845Z,3.39
2022-12-08T14:38:56.790Z,3.38
2022-12-08T14:41:34.312Z,3.37
2022-12-08T14:44:03.090Z,3.37
2022-12-08T14:46:30.867Z,3.34
2022-12-08T14:48:59.708Z,3.29
2022-12-08T14:51:33.043Z,3.32
2022-12-08T14:54:00.589Z,3.27
2022-12-08T14:56:39.117Z,3.26
2022-12-08T14:59:22.836Z,3.02
2022-12-08T15:01:54.960Z,3.17
2022-12-08T15:04:28.201Z,3.14
2022-12-08T15:07:11.833Z,3.12
2022-12-08T15:09:44.255Z,3.12
2022-12-08T15:12:14.798Z,3.10
2022-12-08T15:14:56.222Z,3.09
2022-12-08T15:17:45.293Z,3.07
2022-12-08T15:20:33.339Z,3.07
2022-12-08T15:23:03.364Z,3.05
2022-12-08T15:25:36.126Z,3.09
2022-12-08T15:28:04.362Z,3.09
2022-12-08T15:30:32.004Z,3.12
2022-12-08T15:32:59.656Z,3.12
2022-12-08T15:35:27.199Z,3.10
2022-12-08T15:37:54.765Z,3.13
2022-12-08T15:40:25.972Z,3.16
2022-12-08T15:42:56.004Z,3.13
2022-12-08T15:45:32.065Z,3.11
2022-12-08T15:47:59.622Z,3.10
2022-12-08T15:50:29.568Z,3.13
2022-12-08T15:52:59.562Z,3.08
2022-12-08T15:55:27.794Z,3.13
2022-12-08T16:00:52.611Z,3.14
2022-12-08T16:03:51.650Z,3.12
2022-12-08T16:07:12.487Z,3.15
2022-12-08T16:09:12.179Z,3.17
2022-12-08T16:12:06.521Z,3.17
2022-12-08T16:17:24.663Z,3.19
2022-12-08T16:19:52.505Z,3.21
2022-12-08T16:25:21.625Z,3.21
2022-12-08T16:28:02.966Z,3.16
2022-12-08T16:30:36.411Z,3.13
2022-12-08T16:33:04.215Z,3.08
2022-12-08T16:35:31.909Z,3.12
2022-12-08T16:38:01.010Z,3.12
2022-12-08T16:40:28.710Z,3.12
2022-12-08T16:42:55.336Z,3.10
2022-12-08T16:45:24.545Z,3.08
2022-12-08T16:47:56.420Z,3.08
2022-12-08T16:50:27.605Z,3.05
2022-12-08T16:53:01.173Z,3.03
2022-12-08T16:55:28.880Z,3.02
2022-12-08T16:57:56.679Z,2.99
2022-12-08T17:00:29.689Z,3.01
2022-12-08T17:02:58.537Z,2.96
2022-12-08T17:05:27.131Z,2.97
2022-12-08T17:07:55.836Z,2.95
2022-12-08T17:10:29.340Z,2.92
2022-12-08T17:12:58.058Z,2.92
2022-12-08T17:15:27.269Z,2.92
2022-12-08T17:17:55.317Z,2.90
2022-12-08T17:20:25.792Z,2.92
2022-12-08T17:22:59.667Z,2.88
2022-12-08T17:25:28.014Z,2.92
2022-12-08T17:27:56.359Z,2.91
2022-12-08T17:30:24.407Z,2.92
2022-12-08T17:32:53.583Z,2.93
2022-12-08T17:35:21.669Z,2.94
2022-12-08T17:37:49.186Z,2.96
2022-12-08T17:40:16.899Z,2.94
2022-12-08T17:42:44.678Z,2.94
2022-12-08T17:45:12.388Z,2.94
2022-12-08T17:47:39.974Z,2.95
2022-12-08T17:50:08.726Z,2.94
2022-12-08T17:52:36.728Z,2.94
2022-12-08T17:55:04.958Z,2.95
2022-12-08T17:57:32.600Z,2.95
2022-12-08T18:00:00.123Z,2.99
2022-12-08T18:02:27.742Z,2.98
2022-12-08T18:04:58.311Z,3.00
2022-12-08T18:07:25.834Z,3.01
2022-12-08T18:09:53.686Z,3.00
2022-12-08T18:12:23.745Z,2.99
2022-12-08T18:14:52.339Z,3.02
2022-12-08T18:17:20.609Z,3.03
2022-12-08T18:19:48.277Z,3.04
2022-12-08T18:22:16.103Z,3.03
2022-12-08T18:24:43.814Z,3.02
2022-12-08T18:27:11.432Z,2.98
2022-12-08T18:29:41.537Z,3.02
2022-12-08T18:32:09.452Z,3.01
2022-12-08T18:34:37.087Z,2.83
2022-12-08T18:37:05.274Z,3.02
2022-12-08T18:39:33.979Z,3.01
2022-12-08T18:42:22.746Z,3.02
2022-12-08T18:44:56.242Z,3.01
2022-12-08T18:47:26.058Z,3.03
2022-12-08T18:49:53.609Z,3.04
2022-12-08T18:52:28.113Z,3.04
2022-12-08T18:55:06.433Z,3.04
2022-12-08T18:57:35.503Z,3.06
2022-12-08T19:00:09.220Z,3.03
2022-12-08T19:02:39.355Z,3.07
2022-12-08T19:05:08.172Z,3.09
2022-12-08T19:07:36.154Z,3.07
2022-12-08T19:10:09.335Z,3.08
2022-12-08T19:12:36.999Z,3.06
2022-12-08T19:15:05.754Z,3.07
2022-12-08T19:17:35.606Z,3.06
2022-12-08T19:20:03.626Z,3.09
2022-12-08T19:22:33.690Z,3.07
2022-12-08T19:25:04.185Z,3.06
2022-12-08T19:27:34.092Z,3.07
2022-12-08T19:30:04.309Z,3.02
2022-12-08T19:32:39.388Z,3.04
2022-12-08T19:35:09.270Z,3.03
2022-12-08T19:37:38.976Z,3.01
2022-12-08T19:40:24.844Z,3.02
2022-12-08T19:43:09.786Z,3.03
2022-12-08T19:45:37.841Z,3.04
2022-12-08T19:48:05.922Z,3.05
2022-12-08T19:50:40.387Z,3.08
2022-12-08T19:53:11.312Z,3.07
2022-12-08T19:55:42.423Z,3.06
2022-12-08T19:58:10.798Z,3.06
2022-12-08T20:00:40.364Z,3.05
2022-12-08T20:03:08.453Z,3.00
2022-12-08T20:05:37.630Z,3.01
2022-12-08T20:08:05.412Z,2.99
2022-12-08T20:10:36.645Z,3.00
2022-12-08T20:13:34.338Z,3.02
2022-12-08T20:16:01.929Z,2.99
2022-12-08T20:18:31.941Z,2.92
2022-12-08T20:21:00.298Z,2.91
2022-12-08T20:23:27.888Z,2.89
2022-12-08T20:25:57.554Z,2.85
2022-12-08T20:28:27.598Z,2.83
2022-12-08T20:30:55.125Z,2.84
2022-12-08T20:33:22.771Z,2.83
2022-12-08T20:36:07.545Z,2.78
2022-12-08T20:38:36.386Z,2.84
2022-12-08T20:41:03.986Z,2.83
2022-12-08T20:43:31.501Z,2.85
2022-12-08T20:45:59.153Z,2.86
2022-12-08T20:48:26.984Z,2.88
2022-12-08T20:50:56.724Z,2.90
2022-12-08T20:53:26.223Z,2.90
2022-12-08T20:55:53.980Z,2.90
2022-12-08T20:58:21.791Z,2.88
2022-12-08T21:00:52.124Z,2.92
2022-12-08T21:03:24.990Z,2.93
2022-12-08T21:05:55.273Z,2.89
2022-12-08T21:08:26.092Z,2.91
2022-12-08T21:10:57.359Z,2.88
2022-12-08T21:13:27.668Z,2.90
2022-12-08T21:15:55.432Z,2.90
2022-12-08T21:18:23.585Z,2.90
2022-12-08T21:20:52.900Z,2.85
2022-12-08T21:23:20.562Z,2.89
2022-12-08T21:25:48.564Z,2.85
2022-12-08T21:28:16.613Z,2.86
2022-12-08T21:30:44.736Z,2.84
2022-12-08T21:33:12.579Z,2.81
2022-12-08T21:35:40.671Z,2.86
2022-12-08T21:38:10.564Z,2.84
2022-12-08T21:40:38.419Z,2.79
2022-12-08T21:43:06.047Z,2.78
2022-12-08T21:45:35.400Z,2.77
2022-12-08T21:48:10.756Z,2.79
2022-12-08T21:50:41.395Z,2.81
2022-12-08T21:53:09.008Z,2.81
2022-12-08T21:55:36.642Z,2.63
2022-12-08T21:58:07.557Z,2.81
2022-12-08T22:00:35.268Z,2.81
2022-12-08T22:03:03.761Z,2.81
2022-12-08T22:05:32.135Z,2.82
2022-12-08T22:07:59.864Z,2.82
2022-12-08T22:10:27.713Z,2.86
2022-12-08T22:12:55.592Z,2.89
2022-12-08T22:15:23.363Z,2.84
2022-12-08T22:17:51.023Z,2.85
2022-12-08T22:20:19.076Z,2.83
2022-12-08T22:22:49.193Z,2.83
2022-12-08T22:25:16.896Z,2.82
2022-12-08T22:27:44.420Z,2.82
2022-12-08T22:30:14.440Z,2.82
2022-12-08T22:32:42.432Z,2.81
2022-12-08T22:35:11.303Z,2.78
2022-12-08T22:37:39.266Z,2.80
2022-12-08T22:40:08.009Z,2.65
2022-12-08T22:42:35.811Z,2.78
2022-12-08T22:45:03.491Z,2.79
2022-12-08T22:47:33.298Z,2.82
2022-12-08T22:50:00.911Z,2.82
2022-12-08T22:52:31.056Z,2.83
2022-12-08T22:54:58.659Z,2.82
2022-12-08T22:57:26.216Z,2.83
2022-12-08T22:59:54.011Z,2.78
2022-12-08T23:02:21.917Z,2.80
2022-12-08T23:04:49.740Z,2.80
2022-12-08T23:07:17.368Z,2.79
2022-12-08T23:09:44.895Z,2.81
2022-12-08T23:12:13.652Z,2.77
2022-12-08T23:14:41.244Z,2.78
2022-12-08T23:17:09.196Z,2.78
2022-12-08T23:19:40.298Z,2.78
2022-12-08T23:22:07.954Z,2.77
2022-12-08T23:24:35.519Z,2.73
2022-12-08T23:27:03.178Z,2.73
2022-12-08T23:29:31.096Z,2.72
2022-12-08T23:31:59.024Z,2.69
2022-12-08T23:34:26.719Z,2.70
2022-12-08T23:36:54.352Z,2.68
2022-12-08T23:39:24.780Z,2.67
2022-12-08T23:41:52.784Z,2.64
2022-12-08T23:44:20.657Z,2.59
2022-12-08T23:46:50.882Z,2.56
2022-12-08T23:49:18.455Z,2.54
2022-12-08T23:51:48.237Z,2.53
2022-12-08T23:54:15.851Z,2.54
2022-12-08T23:56:43.736Z,2.54
2022-12-08T23:59:13.652Z,2.52
